Flight Track Log - Related Links

Times and Time Zones

All times are in EDT time to prevent confusion due to time zone crossing. See the SKW2988 flight status page for this flight to view local times or setup timezone preferences in your user account.

Time Position Orientation Groundspeed Altitude Reporting Facility
EDT Latitude Longitude Course Direction KTS MPH feet Rate Location/Type
Mon 10:30:37 PM 34.1667 -118.3667 39° Northeast 179 206 2,400  Level Southern California TRACON
Mon 10:31:37 PM 34.1333 -118.4167 231° Southwest 219 252 5,300 2,453 Climbing Southern California TRACON
Mon 10:33:16 PM 34.1850 -118.4642 323° Northwest 248 285 8,900 2,199 Climbing Los Angeles Center
Mon 10:34:18 PM 34.2714 -118.4261 20° North 277 319 11,200 1,935 Climbing Los Angeles Center
Mon 10:35:20 PM 34.3531 -118.3869 22° Northeast 311 358 12,900 1,707 Climbing Los Angeles Center
Mon 10:36:00 PM 34.4845 -118.2655 39° Northeast  Level FlightAware Approximate
Mon 10:36:21 PM 34.4394 -118.3450 22° Northeast 335 386 14,700  Level Los Angeles Center
Mon 10:37:23 PM 34.5056 -118.2625 46° Northeast 345 397 16,900 1,935 Climbing Los Angeles Center
Mon 10:38:25 PM 34.5653 -118.1703 52° Northeast 349 402 18,700 1,707 Climbing Los Angeles Center
Mon 10:39:26 PM 34.6283 -118.0669 53° Northeast 356 410 20,400 1,512 Climbing Los Angeles Center
Mon 10:40:28 PM 34.6447 -117.9453 81° East 368 423 21,800 1,220 Climbing Los Angeles Center
Mon 10:41:29 PM 34.6583 -117.8197 82° East 377 434 22,900 1,317 Climbing Los Angeles Center
Mon 10:42:31 PM 34.6742 -117.6669 83° East 384 442 24,500 1,258 Climbing Los Angeles Center
Mon 10:43:33 PM 34.6875 -117.5383 83° East 387 445 25,500 976 Climbing Los Angeles Center
Mon 10:44:34 PM 34.7017 -117.4081 82° East 393 452 26,500 732 Climbing Los Angeles Center
Mon 10:45:36 PM 34.7150 -117.2747 83° East 400 460 27,000 242 Climbing Los Angeles Center
Mon 10:46:38 PM 34.7300 -117.1358 82° East 415 478 27,000 49 Level Los Angeles Center
Mon 10:47:39 PM 34.7450 -116.9967 82° East 421 484 27,100 390 Climbing Los Angeles Center
Mon 10:48:41 PM 34.7614 -116.8281 83° East 420 483 27,800 732 Climbing Los Angeles Center
Mon 10:49:42 PM 34.7756 -116.6875 83° East 421 484 28,600 585 Climbing Los Angeles Center
Mon 10:50:44 PM 34.7892 -116.5461 83° East 423 487 29,000 194 Climbing Los Angeles Center
Mon 10:51:46 PM 34.8111 -116.4039 79° East 427 491 29,000  Level Los Angeles Center
Mon 10:52:47 PM 34.8483 -116.2672 72° East 426 490 29,000  Level Los Angeles Center
Mon 10:53:49 PM 34.8833 -116.1325 72° East 421 484 29,000  Level Los Angeles Center
Mon 10:54:50 PM 34.9178 -115.9983 73° East 418 481 29,000  Level Los Angeles Center
Mon 10:55:51 PM 34.9464 -115.8942 71° East 411 473 29,000  Level Los Angeles Center
Mon 10:56:53 PM 34.9931 -115.7086 73° East 411 473 29,000  Level Los Angeles Center
Mon 10:57:55 PM 35.0275 -115.5792 72° East 405 466 29,000  Level Los Angeles Center
Mon 10:58:56 PM 35.0617 -115.4483 72° East 405 466 29,000  Level Los Angeles Center
Mon 10:59:58 PM 35.0950 -115.3169 73° East 405 466 29,000  Level Los Angeles Center
Mon 11:00:59 PM 35.1272 -115.1892 73° East 403 464 29,000  Level Los Angeles Center
Mon 11:02:01 PM 35.1731 -115.0378 70° East 398 458 29,000  Level Los Angeles Center
Mon 11:03:02 PM 35.2144 -114.9092 68° East 404 465 29,000  Level Los Angeles Center
Mon 11:04:04 PM 35.2528 -114.7847 69° East 397 457 29,000  Level Los Angeles Center
Mon 11:05:05 PM 35.2914 -114.6581 69° East 398 458 29,000  Level Los Angeles Center
Mon 11:06:07 PM 35.3308 -114.5311 69° East 399 459 29,000  Level Los Angeles Center
Mon 11:08:15 PM 35.4147 -114.2519 70° East 399 459 29,000  Level Albuquerque Center
Mon 11:09:12 PM 35.4478 -114.1417 70° East 399 459 29,000  Level Los Angeles Center
Mon 11:10:13 PM 35.4858 -114.0156 70° East 398 458 29,000  Level Los Angeles Center
Mon 11:11:15 PM 35.4758 -113.8847 95° East 407 468 29,000  Level Los Angeles Center
Mon 11:12:17 PM 35.3997 -113.7458 124° Southeast 412 474 29,000  Level Los Angeles Center
Mon 11:13:19 PM 35.3372 -113.6300 123° Southeast 411 473 29,000  Level Los Angeles Center
Mon 11:14:21 PM 35.2744 -113.5169 124° Southeast 407 468 29,000  Level Los Angeles Center
Mon 11:15:22 PM 35.2108 -113.3994 124° Southeast 417 480 29,000  Level Los Angeles Center
Mon 11:16:36 PM 35.1461 -113.2803 124° Southeast 424 488 29,000  Level Los Angeles Center
Mon 11:17:25 PM 35.0669 -113.1364 124° Southeast 428 493 29,000 -273 Level Albuquerque Center
Mon 11:18:26 PM 35.0000 -113.0156 124° Southeast 434 499 28,500 -683 Descending Albuquerque Center
Mon 11:19:28 PM 34.9325 -112.8925 124° Southeast 441 507 27,600 -878 Descending Albuquerque Center
Mon 11:20:29 PM 34.8672 -112.7750 124° Southeast 434 499 26,700 -934 Descending Albuquerque Center
Mon 11:21:30 PM 34.8017 -112.6581 124° Southeast 427 491 25,700 -984 Descending Albuquerque Center
Mon 11:22:31 PM 34.7367 -112.5419 124° Southeast 421 484 24,700 -984 Descending Albuquerque Center
Mon 11:23:32 PM 34.6603 -112.4394 132° Southeast 415 478 23,700 -1,366 Descending Albuquerque Center
Mon 11:24:34 PM 34.5564 -112.3397 142° Southeast 400 460 21,900 -1,512 Descending Albuquerque Center
Mon 11:25:35 PM 34.4872 -112.2714 141° Southeast 392 451 20,600 -1,574 Descending Albuquerque Center
Mon 11:26:36 PM 34.3781 -112.2125 156° South 360 414 18,700 -1,770 Descending Albuquerque Center
Mon 11:27:37 PM 34.2814 -112.1878 168° South 357 411 17,000 -1,561 Descending Albuquerque Center
Mon 11:28:39 PM 34.1872 -112.1639 168° South 350 403 15,500 -1,366 Descending Albuquerque Center
Mon 11:29:40 PM 34.0983 -112.1400 167° South 331 381 14,200 -1,328 Descending Albuquerque Center
Mon 11:30:41 PM 34.0158 -112.1178 167° South 310 357 12,800 -1,230 Descending Albuquerque Center
Mon 11:31:42 PM 33.9353 -112.0972 168° South 301 346 11,700 -1,024 Descending Albuquerque Center
Mon 11:32:44 PM 33.8536 -112.0767 168° South 302 348 10,700 -829 Descending Albuquerque Center
Mon 11:33:45 PM 33.7556 -112.0522 168° South 303 349 10,000 -541 Descending Albuquerque Center
Mon 11:34:46 PM 33.6753 -112.0383 172° South 294 338 9,600 -439 Descending Albuquerque Center
Mon 11:35:48 PM 33.6039 -112.0258 172° South 264 304 9,100 -488 Descending Albuquerque Center
Mon 11:36:49 PM 33.5428 -111.9917 155° Southeast 249 287 8,600 -689 Descending Albuquerque Center
Mon 11:37:50 PM 33.5297 -111.9189 102° East 229 264 7,700 -1,171 Descending Albuquerque Center
Mon 11:38:52 PM 33.5272 -111.8458 92° East 223 257 6,200 -1,659 Descending Albuquerque Center
Mon 11:39:53 PM 33.4800 -111.8133 150° Southeast 200 230 4,300 -1,525 Descending Albuquerque Center
Mon 11:40:54 PM 33.4494 -111.8533 228° Southwest 168 193 3,100 -885 Descending Albuquerque Center
Mon 11:41:55 PM 33.4406 -111.9036 258° West 128 147 2,500 -585 Descending Albuquerque Center
Mon 11:42:57 PM 33.4411 -111.9453 271° West 125 144 1,900 -585 Descending Albuquerque Center
Mon 11:43:58 PM 33.4411 -111.9872 270° West 126 145 1,300 -590 Descending Albuquerque Center

Login

Don't have an account? Register now (free) for customized features, flight alerts, and more!